Autaugaville, AL (36003)

11:57 AM CST on November 22, 2014 (GMT -0600)
Kingston Pines | Change Station
CLOSE
Current Station
Personal Weather Station
Location: Prattville, AL
Elevation: 538 ft
Nearby Weather Stations

Elev 538 ft 32.55 °N, 86.55 °W | Updated 8 minutes ago

Clear
Clear
66.2 °F
Feels Like 66.2 °F
N
2.7
Wind Variable Wind from SSE

Today
High -- | Low -- °F
--% Chance of Precip.
Yesterday
High -- | Low -- °F
Precip. -- in
6:22 AM 4:43 PM
New Moon, 0% visible
Pressure 30.33 in
Visibility 10.0 miles
Clouds Clear
Dew Point 45 °F
Humidity 46%
Rainfall 0.00 in
Snow Depth Not available.
UV 4 out of 12
Pollen 1.40 out of 12
Air Quality Not available.
Flu Activity Not available.
METAR KMXF 221658Z AUTO 11009KT 10SM CLR 18/08 A3032 RMK AO2 SLP270 T01830079

More Conditions Fewer Conditions

Pressure 30.33 in
Visibility 10.0 miles
Clouds Clear
Dew Point 45 °F
Humidity 46%
Rainfall 0.00 in
Snow Depth Not available.
UV 4 out of 12
Pollen 1.40 out of 12
Air Quality Not available.
Flu Activity Not available.
METAR KMXF 221658Z AUTO 11009KT 10SM CLR 18/08 A3032 RMK AO2 SLP270 T01830079

More Conditions Fewer Conditions

10-Day Weather Forecast

Almanac

Astronomy

Nov. 22, 2014 Rise Set
Actual Time
Civil Twilight
Nautical Twilight
Astronomical Twilight
Moon
Length of Visible Light
Length of Day
Tomorrow will be .
, % of the Moon is Illuminated

Today's Extremes

State Highs State Lows

Community

WunderPhotos

Upload Photos

1,772,868 photos uploaded!

WunderBlogs® & News

Nearby

Air Quality

  Air Quality AQ Index Pollutant
Not available.

Snow Depth

Station Depth Elevation

Earthquake Activity

City Distance Mag. Time & Date
Minimum magnitude displayed is 2.5.

Coastal Water Temperatures

Place Temperature

Nearby Weather Stations